createdAt,value
2018-07-06T05:28:32.935Z,11.80
2018-07-06T05:36:30.763Z,9.00
2018-07-06T05:38:58.735Z,11.00
2018-07-06T05:41:28.539Z,13.80
2018-07-06T05:43:57.367Z,9.80
2018-07-06T05:46:25.460Z,10.40
2018-07-06T05:55:40.793Z,15.40
2018-07-06T05:58:09.232Z,14.20
2018-07-06T06:00:38.278Z,12.20
2018-07-06T06:03:06.607Z,14.60
2018-07-06T06:05:34.714Z,15.00
2018-07-06T06:08:02.423Z,20.80
2018-07-06T06:15:40.923Z,17.00
2018-07-06T06:18:08.606Z,17.20
2018-07-06T06:20:36.859Z,14.20
2018-07-06T06:23:04.668Z,16.20
2018-07-06T06:25:32.441Z,11.20
2018-07-06T06:28:00.718Z,13.20
2018-07-06T06:30:29.558Z,10.80
2018-07-06T06:32:57.305Z,13.40
2018-07-06T06:46:57.755Z,11.00
2018-07-06T06:53:35.528Z,15.20
2018-07-06T06:56:04.592Z,17.80
2018-07-06T06:58:33.296Z,12.20
2018-07-06T07:01:01.611Z,16.80
2018-07-06T07:03:30.345Z,12.80
2018-07-06T07:05:58.064Z,17.00
2018-07-06T07:08:26.345Z,15.40
2018-07-06T07:10:54.285Z,18.00
2018-07-06T07:13:22.211Z,17.60
2018-07-06T07:21:56.358Z,19.00
2018-07-06T07:24:24.866Z,28.20
2018-07-06T07:32:36.228Z,26.60
2018-07-06T07:35:05.155Z,23.60
2018-07-06T07:37:34.123Z,22.80
2018-07-06T07:40:02.905Z,26.80
2018-07-06T07:42:32.313Z,19.40
2018-07-06T07:47:38.567Z,25.00
2018-07-06T07:50:06.697Z,22.60
2018-07-06T07:52:36.085Z,28.80
2018-07-06T08:00:13.731Z,27.40
2018-07-06T08:05:23.824Z,24.80
2018-07-06T08:07:55.507Z,32.80
2018-07-06T08:10:25.192Z,23.20
2018-07-06T08:12:52.887Z,28.00
